createdAt,value
2018-11-28T00:01:21.233Z,3.26
2018-11-28T00:07:16.215Z,3.6
2018-11-28T00:13:11.217Z,4.37
2018-11-28T00:19:06.244Z,3.17
2018-11-28T00:25:01.234Z,3.93
2018-11-28T00:30:56.223Z,3.2
2018-11-28T00:36:51.220Z,3.34
2018-11-28T00:42:46.242Z,3.34
2018-11-28T00:48:41.258Z,4.3
2018-11-28T00:54:36.246Z,3.35
2018-11-28T01:00:31.867Z,3.17
2018-11-28T01:06:26.233Z,3.93
2018-11-28T01:12:21.266Z,4.02
2018-11-28T01:18:16.268Z,4.24
2018-11-28T01:24:11.265Z,4.16
2018-11-28T01:30:06.258Z,3.81
2018-11-28T01:36:01.257Z,3.45
2018-11-28T01:41:56.286Z,3.89
2018-11-28T01:47:51.274Z,3.89
2018-11-28T01:53:46.335Z,4.1
2018-11-28T01:59:41.256Z,4.12
2018-11-28T02:05:36.318Z,3.33
2018-11-28T02:11:31.296Z,3.59
2018-11-28T02:17:26.309Z,4.47
2018-11-28T02:23:21.288Z,4.26
2018-11-28T02:29:16.284Z,4.16
2018-11-28T02:35:11.289Z,4.51
2018-11-28T02:41:06.299Z,3.75
2018-11-28T02:47:01.287Z,4.07
2018-11-28T02:52:56.339Z,3.33
2018-11-28T02:58:51.307Z,4.56
2018-11-28T03:04:46.320Z,3.62
2018-11-28T03:10:41.327Z,3.78
2018-11-28T03:16:36.322Z,3.57
2018-11-28T03:22:31.307Z,4.87
2018-11-28T03:28:26.459Z,3.69
2018-11-28T03:34:21.329Z,3.64
2018-11-28T03:40:16.313Z,4.01
2018-11-28T03:46:11.345Z,4.35
2018-11-28T03:52:06.376Z,3.99
2018-11-28T03:58:01.338Z,3.32
2018-11-28T04:03:56.329Z,3.62
2018-11-28T04:09:51.379Z,3.87
2018-11-28T04:15:46.360Z,3.51
2018-11-28T04:21:41.361Z,4.45
2018-11-28T04:27:36.350Z,4.51
2018-11-28T04:33:31.348Z,3.73
2018-11-28T04:39:26.360Z,3.83
2018-11-28T04:45:21.352Z,4.11
2018-11-28T04:51:16.374Z,4.94
2018-11-28T04:57:11.361Z,5.18
2018-11-28T05:03:06.389Z,5.57
2018-11-28T05:09:01.371Z,4.09
2018-11-28T05:14:56.445Z,4.04
2018-11-28T05:20:51.374Z,4.19
2018-11-28T05:26:46.387Z,4.06
2018-11-28T05:32:41.431Z,4.4
2018-11-28T05:38:36.388Z,4.98
2018-11-28T05:44:31.398Z,4.74
2018-11-28T05:50:27.737Z,5.41
2018-11-28T05:56:21.403Z,4.8
2018-11-28T06:02:16.408Z,5.14
2018-11-28T06:08:11.486Z,5.61
2018-11-28T06:14:06.425Z,5.26
2018-11-28T06:20:01.397Z,4.82
2018-11-28T06:25:56.418Z,5.04
2018-11-28T06:31:51.456Z,4.44
2018-11-28T06:37:46.414Z,5.09
2018-11-28T06:43:41.435Z,4.98
2018-11-28T06:49:36.437Z,5.21
2018-11-28T06:55:31.423Z,5.4
2018-11-28T07:01:26.431Z,5.01
2018-11-28T07:07:21.438Z,5.32
2018-11-28T07:13:16.425Z,4.94
2018-11-28T07:19:11.455Z,5.28
2018-11-28T07:25:06.445Z,4.23
2018-11-28T07:31:01.491Z,5.29
2018-11-28T07:36:56.492Z,4.93
2018-11-28T07:42:51.460Z,4.98
2018-11-28T07:48:46.484Z,5.47
2018-11-28T07:54:41.450Z,5.41
2018-11-28T08:00:36.450Z,5.75
2018-11-28T08:06:31.494Z,5.58
2018-11-28T08:12:26.474Z,5.71
2018-11-28T08:18:21.477Z,5.18
2018-11-28T08:24:16.471Z,5.09
2018-11-28T08:30:11.473Z,4.54
2018-11-28T08:36:06.472Z,5.26
2018-11-28T08:42:01.520Z,5.56
2018-11-28T08:47:56.477Z,4.61
2018-11-28T08:53:51.509Z,5.21
2018-11-28T08:59:46.513Z,5.31
2018-11-28T09:05:41.509Z,4.5
2018-11-28T09:11:36.511Z,5.03
2018-11-28T09:17:32.203Z,5.68
2018-11-28T09:23:26.508Z,4.23
2018-11-28T09:29:21.505Z,5.29
2018-11-28T09:35:16.567Z,4.63
2018-11-28T09:41:11.568Z,4.07
2018-11-28T09:47:06.508Z,4.88
2018-11-28T09:53:01.536Z,4.29
2018-11-28T09:58:56.529Z,4.94
2018-11-28T10:04:51.540Z,4.43
2018-11-28T10:10:46.533Z,4.27
2018-11-28T10:16:41.642Z,4.27
2018-11-28T10:22:37.111Z,4.65
2018-11-28T10:28:31.550Z,4.04
2018-11-28T10:34:29.446Z,4.57
2018-11-28T10:40:21.572Z,4.61
2018-11-28T10:46:16.564Z,4.82
2018-11-28T10:52:11.563Z,3.5
2018-11-28T10:58:06.564Z,4.15
2018-11-28T11:04:01.557Z,7.63
2018-11-28T11:09:56.567Z,4.01
2018-11-28T11:15:51.570Z,4.33
2018-11-28T11:21:46.592Z,3.8
2018-11-28T11:27:41.583Z,3.65
2018-11-28T11:33:36.567Z,4.22
2018-11-28T11:39:31.602Z,4.21
2018-11-28T11:45:26.602Z,3.91
2018-11-28T11:51:21.590Z,4.27
2018-11-28T11:57:16.585Z,4.12
2018-11-28T12:03:11.628Z,3.53
2018-11-28T12:09:06.611Z,3.93
2018-11-28T12:15:01.612Z,3.88
2018-11-28T12:20:56.610Z,4.09
2018-11-28T12:26:51.678Z,4.07
2018-11-28T12:32:46.613Z,3.82
2018-11-28T12:38:41.623Z,3.91
2018-11-28T12:44:36.678Z,4.29
2018-11-28T12:50:31.632Z,3.9
2018-11-28T12:56:26.627Z,4.41
2018-11-28T13:02:21.626Z,4.33
2018-11-28T13:08:16.629Z,4.65
2018-11-28T13:14:11.635Z,4.19
2018-11-28T13:20:06.757Z,5.03
2018-11-28T13:26:01.647Z,3.67
2018-11-28T13:31:56.672Z,3.74
2018-11-28T13:37:51.654Z,4.1
2018-11-28T13:43:46.682Z,3.43
2018-11-28T13:49:41.672Z,4.31
2018-11-28T13:55:38.020Z,4.76
2018-11-28T14:01:31.653Z,4.36
2018-11-28T14:07:26.682Z,4.25
2018-11-28T14:13:26.901Z,3.56
2018-11-28T14:19:16.816Z,3.95
2018-11-28T14:25:11.685Z,4.52
2018-11-28T14:31:06.688Z,4.39
2018-11-28T14:37:01.697Z,4.25
2018-11-28T14:42:56.693Z,4.5
2018-11-28T14:48:51.681Z,3.73
2018-11-28T14:54:46.683Z,3.25
2018-11-28T15:00:41.687Z,3.76
2018-11-28T15:06:36.682Z,3.71
2018-11-28T15:12:31.707Z,4.22
2018-11-28T15:18:26.735Z,3.93
2018-11-28T15:24:21.698Z,3.62
2018-11-28T15:30:16.704Z,3.72
2018-11-28T15:36:11.707Z,3.95
2018-11-28T15:42:06.750Z,4.32
2018-11-28T15:48:01.761Z,4.78
2018-11-28T15:53:56.780Z,3.96
2018-11-28T15:59:51.736Z,4.05
2018-11-28T16:05:46.769Z,3.52
2018-11-28T16:11:41.714Z,5.61
2018-11-28T16:17:36.726Z,5.36
2018-11-28T16:23:31.778Z,5.53
2018-11-28T16:29:26.802Z,4.92
2018-11-28T16:35:21.736Z,5.71
2018-11-28T16:41:16.801Z,4.17
2018-11-28T16:47:11.756Z,4.43
2018-11-28T16:53:06.749Z,4.8
2018-11-28T16:59:01.773Z,5.3
2018-11-28T17:04:56.765Z,5.07
2018-11-28T17:10:51.745Z,4.93
2018-11-28T17:16:46.764Z,5.3
2018-11-28T17:22:41.764Z,8.5
2018-11-28T17:28:36.761Z,5.39
2018-11-28T17:34:31.813Z,7.5
2018-11-28T17:40:26.803Z,5.65
2018-11-28T17:46:21.789Z,5.39
2018-11-28T17:52:16.776Z,9.6
2018-11-28T17:58:11.785Z,5.98
2018-11-28T18:04:06.787Z,4.79
2018-11-28T18:10:01.828Z,5.64
2018-11-28T18:15:56.833Z,4.5
2018-11-28T18:21:51.841Z,3.73
2018-11-28T18:27:46.823Z,4.52
2018-11-28T18:33:41.819Z,4.11
2018-11-28T18:39:36.826Z,6.38
2018-11-28T18:45:31.820Z,5.1
2018-11-28T18:51:26.842Z,3.88
2018-11-28T18:57:21.830Z,3.43
2018-11-28T19:03:16.833Z,3.15
2018-11-28T19:09:11.857Z,3.8
2018-11-28T19:15:06.833Z,3.5
2018-11-28T19:21:01.871Z,3.76
2018-11-28T19:26:56.855Z,3.37
2018-11-28T19:32:51.842Z,3.27
2018-11-28T19:38:46.880Z,4.22
2018-11-28T19:44:41.850Z,3.41
2018-11-28T19:50:36.880Z,4.1
2018-11-28T19:56:31.873Z,3.62
2018-11-28T20:02:26.877Z,3.63
2018-11-28T20:08:21.891Z,3.82
2018-11-28T20:14:16.866Z,3.18
2018-11-28T20:20:12.770Z,3.95
2018-11-28T20:26:06.900Z,3.43
2018-11-28T20:32:01.866Z,3.63
2018-11-28T20:37:56.925Z,3.52
2018-11-28T20:43:52.529Z,3.53
2018-11-28T20:49:46.884Z,3.33
2018-11-28T20:55:41.923Z,3.69
2018-11-28T21:01:36.917Z,5.11
2018-11-28T21:07:31.927Z,3.58
2018-11-28T21:13:26.883Z,3.04
2018-11-28T21:19:21.937Z,3.15
2018-11-28T21:25:16.955Z,3.17
2018-11-28T21:31:11.916Z,3.23
2018-11-28T21:37:06.906Z,3.52
2018-11-28T21:43:01.913Z,2.7
2018-11-28T21:48:56.914Z,2.68
2018-11-28T21:54:51.945Z,2.93
2018-11-28T22:00:46.923Z,2.9
2018-11-28T22:06:41.972Z,3.3
2018-11-28T22:12:36.965Z,3.3
2018-11-28T22:18:31.928Z,3.07
2018-11-28T22:24:26.922Z,3.67
2018-11-28T22:30:21.955Z,2.99
2018-11-28T22:36:16.939Z,3.73
2018-11-28T22:42:11.941Z,3.03
2018-11-28T22:48:06.942Z,3.54
2018-11-28T22:54:01.974Z,3
2018-11-28T22:59:57.007Z,3.4
2018-11-28T23:05:51.976Z,3.46
2018-11-28T23:11:46.960Z,2.91
2018-11-28T23:17:41.975Z,3.26
2018-11-28T23:23:37.015Z,2.67
2018-11-28T23:29:32.022Z,3.01
2018-11-28T23:35:27.057Z,2.73
2018-11-28T23:41:21.964Z,2.55
2018-11-28T23:47:16.981Z,2.48
2018-11-28T23:53:12.024Z,2.49
2018-11-28T23:59:07.025Z,2.47
